Time;durP1;ratioP1;P1;durP2;ratioP2;P2;SDS_P1;SDS_P2;PMS_P1;PMS_P2;Temp;Humidity;BMP_temperature;BMP_pressure;BME280_temperature;BME280_humidity;BME280_pressure;Samples;Min_cycle;Max_cycle;Signal;HPM_P1;HPM_P2
2021/06/22 00:00:16;;;;;;;6.28;4.15;;;;;;;29.03;44.42;98792.16;4484071;32;33411;-64
2021/06/22 00:02:44;;;;;;;8.23;4.78;;;;;;;29.03;44.42;98800.41;4482376;32;33495;-65
2021/06/22 00:05:12;;;;;;;7.78;4.57;;;;;;;29.04;44.41;98805.59;4482517;31;33721;-65
2021/06/22 00:07:48;;;;;;;7.45;4.78;;;;;;;29.04;44.38;98797.34;4484520;32;34045;-65
2021/06/22 00:10:16;;;;;;;10.13;4.97;;;;;;;29.03;44.40;98792.97;4484368;32;34110;-65
2021/06/22 00:12:44;;;;;;;6.95;4.65;;;;;;;29.05;44.38;98792.69;4484250;32;33765;-65
2021/06/22 00:15:14;;;;;;;5.70;4.72;;;;;;;29.03;44.44;98800.41;4484592;32;33391;-65
2021/06/22 00:17:42;;;;;;;8.82;4.72;;;;;;;29.02;44.46;98801.50;4484163;32;34521;-65
2021/06/22 00:20:11;;;;;;;9.05;4.80;;;;;;;29.05;44.30;98798.16;4483930;32;34161;-64
2021/06/22 00:22:39;;;;;;;6.93;4.72;;;;;;;29.03;44.36;98792.16;4484176;32;33896;-65
2021/06/22 00:25:07;;;;;;;8.52;5.05;;;;;;;29.03;44.35;98797.66;4484017;32;34770;-65
2021/06/22 00:27:35;;;;;;;7.30;4.60;;;;;;;29.02;44.41;98799.59;4484242;32;33876;-65
2021/06/22 00:30:04;;;;;;;7.35;5.30;;;;;;;29.02;44.42;98787.78;4484111;32;33342;-65
2021/06/22 00:32:32;;;;;;;6.95;5.07;;;;;;;29.01;44.42;98772.41;4483899;32;33397;-65
2021/06/22 00:35:02;;;;;;;6.20;4.95;;;;;;;29.02;44.40;98780.34;4482888;32;34648;-65
2021/06/22 00:37:29;;;;;;;7.32;4.85;;;;;;;29.02;44.40;98785.03;4482670;32;34628;-65
2021/06/22 00:39:57;;;;;;;6.47;4.80;;;;;;;29.03;44.35;98781.19;4483876;32;33251;-65
2021/06/22 00:42:25;;;;;;;8.93;4.87;;;;;;;29.02;44.40;98768.56;4484327;32;33879;-65
2021/06/22 00:44:58;;;;;;;7.95;5.00;;;;;;;29.02;44.44;98774.06;4484311;32;35079;-65
2021/06/22 00:47:26;;;;;;;7.80;5.20;;;;;;;29.01;44.45;98775.16;4483862;32;33745;-65
2021/06/22 00:49:54;;;;;;;8.15;5.12;;;;;;;29.02;44.36;98774.87;4484271;32;34019;-65
2021/06/22 00:52:24;;;;;;;8.52;5.05;;;;;;;29.01;44.41;98765.00;4484097;32;33847;-65
2021/06/22 00:54:52;;;;;;;8.05;5.18;;;;;;;29.03;44.31;98764.69;4483887;32;34555;-65
2021/06/22 00:57:20;;;;;;;7.30;5.53;;;;;;;29.03;44.36;98767.44;4483860;32;34011;-65
2021/06/22 00:59:47;;;;;;;7.50;5.32;;;;;;;29.02;44.36;98769.38;4482591;32;33547;-65
2021/06/22 01:02:16;;;;;;;6.90;5.28;;;;;;;29.03;44.32;98767.44;4483525;32;33642;-65
2021/06/22 01:04:44;;;;;;;6.68;5.35;;;;;;;29.01;44.34;98759.50;4484023;31;33917;-65
2021/06/22 01:07:13;;;;;;;6.47;5.03;;;;;;;29.02;44.34;98761.13;4483969;32;33778;-65
2021/06/22 01:09:41;;;;;;;8.00;5.22;;;;;;;29.02;44.40;98769.38;4482586;32;33241;-65
2021/06/22 01:12:09;;;;;;;9.73;5.40;;;;;;;29.02;44.38;98772.13;4469474;32;33879;-65
2021/06/22 01:14:41;;;;;;;8.82;5.40;;;;;;;29.02;44.45;98771.31;4482390;32;33910;-65
2021/06/22 01:17:10;;;;;;;9.30;5.35;;;;;;;29.01;44.51;98772.41;4484069;32;34360;-65
2021/06/22 01:19:38;;;;;;;7.78;5.70;;;;;;;29.01;44.44;98772.41;4483803;32;33195;-65
2021/06/22 01:22:06;;;;;;;7.93;5.20;;;;;;;29.01;44.40;98778.72;4483727;32;33789;-64
2021/06/22 01:24:34;;;;;;;7.95;5.20;;;;;;;29.01;44.37;98775.16;4483787;32;33842;-66
2021/06/22 01:27:02;;;;;;;7.32;5.50;;;;;;;29.02;44.33;98777.62;4483785;31;33557;-65
2021/06/22 01:29:30;;;;;;;9.30;5.40;;;;;;;29.02;44.31;98777.62;4483675;32;33142;-65
2021/06/22 01:31:58;;;;;;;7.53;5.65;;;;;;;29.01;44.36;98778.72;4483531;32;35017;-65
2021/06/22 01:34:28;;;;;;;8.35;5.53;;;;;;;29.01;44.35;98786.16;4483357;32;34701;-65
2021/06/22 01:36:57;;;;;;;9.90;5.93;;;;;;;29.02;44.38;98785.03;4483200;32;33725;-65
2021/06/22 01:39:25;;;;;;;7.53;5.23;;;;;;;29.01;44.33;98784.22;4483555;32;33034;-66
2021/06/22 01:41:53;;;;;;;8.55;6.00;;;;;;;29.02;44.34;98787.78;4483383;32;33771;-65
2021/06/22 01:44:25;;;;;;;8.32;5.90;;;;;;;28.98;44.50;98791.09;4483305;32;33789;-65
2021/06/22 01:46:54;;;;;;;8.50;5.28;;;;;;;28.97;44.58;98796.87;4483387;32;34773;-65
2021/06/22 01:49:22;;;;;;;6.43;5.72;;;;;;;28.97;44.54;98805.94;4483450;32;33425;-65
2021/06/22 01:51:49;;;;;;;9.15;5.97;;;;;;;28.96;44.55;98798.81;4483307;32;34724;-65
2021/06/22 01:54:18;;;;;;;9.02;5.95;;;;;;;28.95;44.59;98797.16;4483588;32;33621;-65
2021/06/22 01:56:50;;;;;;;8.23;5.77;;;;;;;28.95;44.63;98805.37;4483480;32;34580;-65
2021/06/22 01:59:19;;;;;;;7.53;5.70;;;;;;;28.97;44.57;98796.87;4483253;32;33999;-65
2021/06/22 02:01:50;;;;;;;8.43;5.65;;;;;;;28.96;44.54;98801.56;4483283;32;33659;-65
2021/06/22 02:04:19;;;;;;;8.32;5.97;;;;;;;28.97;44.54;98802.38;4483175;32;34614;-65
2021/06/22 02:06:47;;;;;;;9.75;5.93;;;;;;;28.95;44.56;98802.66;4483208;32;34429;-65
2021/06/22 02:09:21;;;;;;;8.02;5.72;;;;;;;28.94;44.62;98805.66;4480673;32;33897;-65
2021/06/22 02:11:48;;;;;;;8.77;6.20;;;;;;;28.95;44.56;98801.81;4484451;32;33785;-65
2021/06/22 02:14:16;;;;;;;9.63;6.55;;;;;;;28.95;44.51;98797.16;4482364;32;33955;-65
2021/06/22 02:16:44;;;;;;;7.43;5.78;;;;;;;28.95;44.58;98813.63;4484977;32;34373;-65
2021/06/22 02:19:12;;;;;;;10.98;6.40;;;;;;;28.95;44.62;98810.06;4485285;32;33286;-65
2021/06/22 02:21:40;;;;;;;11.48;6.00;;;;;;;28.94;44.61;98814.72;4484996;32;33778;-66
2021/06/22 02:24:09;;;;;;;7.47;6.07;;;;;;;28.95;44.59;98813.63;4485022;32;34829;-64
2021/06/22 02:26:36;;;;;;;9.02;5.65;;;;;;;28.93;44.65;98815.81;4485225;31;33563;-65
2021/06/22 02:29:04;;;;;;;8.68;5.68;;;;;;;28.95;44.68;98823.78;4485147;32;33940;-65
2021/06/22 02:31:32;;;;;;;7.45;5.85;;;;;;;28.93;44.70;98826.81;4485046;32;33833;-65
2021/06/22 02:34:01;;;;;;;8.52;6.07;;;;;;;28.94;44.67;98835.87;4485286;32;33859;-65
2021/06/22 02:36:29;;;;;;;7.75;5.45;;;;;;;28.95;44.58;98832.84;4485047;32;34627;-65
2021/06/22 02:38:58;;;;;;;12.00;6.05;;;;;;;28.95;44.62;98835.59;4485055;32;34324;-65
2021/06/22 02:41:26;;;;;;;8.10;5.80;;;;;;;28.93;44.70;98846.03;4484938;32;34595;-65
2021/06/22 02:43:54;;;;;;;7.97;6.07;;;;;;;28.93;44.76;98848.78;4485207;32;34607;-65
2021/06/22 02:46:22;;;;;;;8.65;6.40;;;;;;;28.93;44.81;98856.19;4484655;32;34519;-65
2021/06/22 02:48:50;;;;;;;9.68;6.28;;;;;;;28.92;44.82;98858.13;4484940;32;32965;-65
2021/06/22 02:51:17;;;;;;;7.78;6.10;;;;;;;28.94;44.68;98866.88;4484829;32;33936;-65
2021/06/22 02:53:45;;;;;;;9.00;6.12;;;;;;;28.93;44.73;98859.75;4484673;32;33938;-65
2021/06/22 02:56:13;;;;;;;9.43;6.45;;;;;;;28.93;44.72;98862.50;4484679;32;34455;-64
2021/06/22 02:58:41;;;;;;;10.25;6.30;;;;;;;28.94;44.68;98868.81;4478804;32;33851;-65
2021/06/22 03:01:11;;;;;;;;;;;;;;;28.95;44.66;98875.97;4484810;32;33929;-65
2021/06/22 03:03:38;;;;;;;9.57;6.12;;;;;;;29.07;44.41;98875.63;4484933;32;34690;-65
2021/06/22 03:06:07;;;;;;;9.05;6.20;;;;;;;28.97;44.61;98879.28;4484695;32;33738;-64
2021/06/22 03:08:35;;;;;;;11.23;5.80;;;;;;;28.93;44.72;98878.97;4484886;32;33198;-68
2021/06/22 03:11:03;;;;;;;8.48;6.40;;;;;;;28.93;44.80;98878.16;4484651;32;33872;-69
2021/06/22 03:13:32;;;;;;;9.40;6.00;;;;;;;28.93;44.75;98880.91;4483363;32;33836;-65
2021/06/22 03:16:02;;;;;;;;;;;;;;;28.94;44.69;98882.53;4485259;32;33924;-65
2021/06/22 03:18:30;;;;;;;8.50;5.80;;;;;;;29.07;44.45;98879.19;4484726;32;33982;-65
2021/06/22 03:20:57;;;;;;;15.27;6.57;;;;;;;28.97;44.71;98879.28;4484546;32;33612;-65
2021/06/22 03:23:26;;;;;;;10.02;6.40;;;;;;;28.94;44.77;98880.63;4483557;32;34658;-65
2021/06/22 03:25:54;;;;;;;12.85;6.37;;;;;;;28.92;44.76;98882.84;4484667;32;34043;-65
2021/06/22 03:28:22;;;;;;;12.32;6.75;;;;;;;28.92;44.82;98882.03;4484738;32;33516;-66
2021/06/22 03:30:50;;;;;;;13.73;6.22;;;;;;;28.92;44.84;98882.03;4484694;32;33740;-65
2021/06/22 03:33:18;;;;;;;10.65;6.35;;;;;;;28.92;44.88;98887.50;4484594;32;33835;-65
2021/06/22 03:35:46;;;;;;;11.98;6.65;;;;;;;28.91;44.96;98885.84;4484371;32;34728;-65
2021/06/22 03:38:14;;;;;;;10.60;5.97;;;;;;;28.92;44.95;98884.78;4484762;32;34394;-64
2021/06/22 03:40:42;;;;;;;11.82;6.68;;;;;;;28.91;44.90;98881.22;4484656;32;33386;-65
2021/06/22 03:43:11;;;;;;;8.20;5.90;;;;;;;28.90;44.91;98875.97;4484444;32;35311;-64
2021/06/22 03:45:39;;;;;;;13.00;7.18;;;;;;;28.91;44.90;98881.22;4484714;32;33902;-65
2021/06/22 03:48:07;;;;;;;8.75;6.10;;;;;;;28.90;44.91;98884.22;4484419;32;33363;-65
2021/06/22 03:50:35;;;;;;;9.52;6.37;;;;;;;28.90;44.89;98885.03;4484255;32;33848;-65
2021/06/22 03:53:03;;;;;;;11.23;6.90;;;;;;;28.90;44.91;98890.53;4484432;32;34482;-65
2021/06/22 03:55:30;;;;;;;9.13;6.03;;;;;;;28.89;44.92;98882.59;4483943;32;34685;-64
2021/06/22 03:58:01;;;;;;;9.65;6.15;;;;;;;28.90;44.94;98896.03;4479965;32;34050;-64
2021/06/22 04:00:29;;;;;;;9.43;6.00;;;;;;;28.90;44.97;98896.03;4484281;32;33638;-65
2021/06/22 04:02:59;;;;;;;13.77;6.57;;;;;;;28.91;44.89;98902.31;4484464;32;33523;-64
2021/06/22 04:05:30;;;;;;;9.65;6.07;;;;;;;28.89;44.89;98899.88;4484347;32;33804;-64
2021/06/22 04:07:59;;;;;;;10.52;6.05;;;;;;;28.90;44.81;98897.94;4479595;32;34415;-65
2021/06/22 04:10:28;;;;;;;12.25;6.20;;;;;;;28.90;44.91;98903.44;4484426;32;33858;-64
2021/06/22 04:12:56;;;;;;;13.48;6.03;;;;;;;28.90;44.96;98906.19;4484308;32;33890;-65
2021/06/22 04:15:26;;;;;;;9.55;6.30;;;;;;;28.89;45.00;98915.53;4484182;32;35053;-65
2021/06/22 04:18:12;;;;;;;10.48;6.22;;;;;;;28.91;45.02;98907.81;4478957;32;34218;-64
2021/06/22 04:20:40;;;;;;;9.80;6.70;;;;;;;28.92;44.98;98909.47;4484505;32;33738;-65
2021/06/22 04:23:08;;;;;;;10.27;6.28;;;;;;;28.90;44.99;98911.69;4481511;32;34647;-65
2021/06/22 04:25:36;;;;;;;9.35;6.12;;;;;;;28.89;45.05;98905.38;4483289;31;33847;-64
2021/06/22 04:28:04;;;;;;;10.65;5.90;;;;;;;28.89;45.05;98899.88;4484207;32;33380;-65
2021/06/22 04:30:32;;;;;;;9.88;6.47;;;;;;;28.88;45.10;98898.25;4483929;32;33471;-64
2021/06/22 04:33:00;;;;;;;14.68;6.87;;;;;;;28.89;45.04;98902.63;4483827;32;33820;-65
2021/06/22 04:35:29;;;;;;;10.70;6.62;;;;;;;28.88;45.09;98901.00;4483945;32;33783;-63
2021/06/22 04:37:58;;;;;;;13.75;7.10;;;;;;;28.89;45.14;98899.06;4483969;32;33445;-65
2021/06/22 04:40:26;;;;;;;13.18;6.40;;;;;;;28.89;45.27;98902.63;4483998;32;33893;-65
2021/06/22 04:42:53;;;;;;;11.12;6.87;;;;;;;28.89;45.25;98901.81;4478624;32;34726;-64
2021/06/22 04:45:21;;;;;;;11.18;6.30;;;;;;;28.89;45.25;98901.81;4483911;32;34603;-64
2021/06/22 04:47:49;;;;;;;15.40;6.65;;;;;;;28.88;45.26;98895.50;4483967;32;34185;-65
2021/06/22 04:50:17;;;;;;;9.65;6.45;;;;;;;28.88;45.28;98894.69;4483984;32;33854;-64
2021/06/22 04:52:45;;;;;;;9.77;7.22;;;;;;;28.87;45.28;98907.59;4483801;32;34482;-65
2021/06/22 04:55:13;;;;;;;18.15;7.10;;;;;;;28.88;45.22;98902.91;4483811;32;33862;-63
2021/06/22 04:57:44;;;;;;;19.45;6.78;;;;;;;28.89;45.03;98907.28;4483797;32;33300;-67
2021/06/22 05:00:13;;;;;;;20.02;6.93;;;;;;;28.88;45.05;98900.16;4483891;32;33776;-68
2021/06/22 05:02:42;;;;;;;14.13;6.62;;;;;;;28.88;45.12;98897.44;4483749;32;33912;-67
2021/06/22 05:05:13;;;;;;;13.75;6.85;;;;;;;28.89;45.09;98899.06;4483169;32;34595;-67
2021/06/22 05:07:41;;;;;;;16.83;7.37;;;;;;;28.88;45.15;98901.00;4482664;32;33249;-68
2021/06/22 05:10:09;;;;;;;18.00;7.75;;;;;;;28.88;45.08;98903.72;4483586;32;33876;-67
2021/06/22 05:12:37;;;;;;;12.95;7.18;;;;;;;28.88;45.08;98909.22;4480687;32;34510;-67
2021/06/22 05:15:06;;;;;;;14.35;7.00;;;;;;;28.89;45.06;98910.03;4467865;32;34436;-68
2021/06/22 05:17:33;;;;;;;11.45;6.50;;;;;;;28.88;45.04;98903.72;4483691;32;34146;-69
2021/06/22 05:20:02;;;;;;;15.75;6.45;;;;;;;28.89;44.99;98910.03;4483553;32;33839;-68
2021/06/22 05:22:30;;;;;;;11.93;6.87;;;;;;;28.89;44.93;98910.03;4483472;32;33873;-68
2021/06/22 05:24:58;;;;;;;11.77;6.80;;;;;;;28.89;44.84;98910.03;4483537;32;35157;-68
2021/06/22 05:27:25;;;;;;;11.85;6.60;;;;;;;28.89;44.79;98902.63;4483414;32;33294;-69
2021/06/22 05:29:53;;;;;;;10.80;6.22;;;;;;;28.89;44.78;98902.63;4483444;32;33722;-68
2021/06/22 05:32:21;;;;;;;11.45;6.72;;;;;;;28.88;44.77;98891.94;4483530;32;33533;-68
2021/06/22 05:34:48;;;;;;;13.35;6.43;;;;;;;28.88;44.75;98892.75;4483405;32;33919;-68
2021/06/22 05:37:18;;;;;;;10.52;6.70;;;;;;;28.88;44.76;98895.50;4483246;32;33356;-68
2021/06/22 05:39:47;;;;;;;12.07;7.03;;;;;;;28.89;44.73;98901.81;4483335;32;34692;-68
2021/06/22 05:42:15;;;;;;;13.15;7.03;;;;;;;28.89;44.68;98907.28;4483285;32;33825;-69
2021/06/22 05:44:43;;;;;;;13.73;6.25;;;;;;;28.89;44.66;98904.56;4483138;32;34532;-68
2021/06/22 05:47:11;;;;;;;10.43;6.10;;;;;;;28.89;44.64;98908.12;4484988;32;34489;-67
2021/06/22 05:49:38;;;;;;;9.30;6.45;;;;;;;28.90;44.61;98912.50;4485281;32;34704;-68
2021/06/22 05:52:06;;;;;;;10.45;6.10;;;;;;;28.89;44.59;98926.50;4485225;32;33253;-68
2021/06/22 05:54:35;;;;;;;11.30;6.68;;;;;;;28.89;44.57;98921.03;4485342;32;33716;-68
2021/06/22 05:57:03;;;;;;;9.85;6.43;;;;;;;28.89;44.55;98921.84;4468176;32;33252;-68
2021/06/22 05:59:31;;;;;;;10.23;7.03;;;;;;;28.90;44.52;98926.22;4469516;32;34932;-68
2021/06/22 06:01:59;;;;;;;11.43;6.30;;;;;;;28.89;44.52;98916.34;4469240;32;34597;-68
2021/06/22 06:04:28;;;;;;;9.85;6.20;;;;;;;28.90;44.51;98922.66;4469378;32;33793;-68
2021/06/22 06:06:56;;;;;;;10.43;5.90;;;;;;;28.89;44.51;98929.25;4469334;32;34153;-68
2021/06/22 06:09:24;;;;;;;11.02;6.43;;;;;;;28.89;44.49;98926.50;4469305;32;34488;-69
2021/06/22 06:11:52;;;;;;;12.37;6.72;;;;;;;28.88;44.47;98930.38;4474293;32;34672;-69
2021/06/22 06:14:20;;;;;;;8.10;6.00;;;;;;;28.88;44.48;98933.13;4484901;32;34471;-68
2021/06/22 06:16:47;;;;;;;9.15;6.07;;;;;;;28.88;44.49;98931.19;4485034;32;33385;-68
2021/06/22 06:19:15;;;;;;;9.23;6.25;;;;;;;28.89;44.46;98929.25;4483846;32;33892;-68
2021/06/22 06:21:43;;;;;;;9.50;5.97;;;;;;;28.88;44.45;98933.13;4485203;32;33878;-68
2021/06/22 06:24:11;;;;;;;8.60;6.20;;;;;;;28.89;44.43;98930.09;4484851;32;33738;-67
2021/06/22 06:26:47;;;;;;;10.35;6.03;;;;;;;28.89;44.42;98932.00;4484942;32;33879;-68
2021/06/22 06:29:31;;;;;;;9.55;5.62;;;;;;;28.86;44.42;98930.62;4485127;32;33546;-67
2021/06/22 06:31:59;;;;;;;11.93;5.90;;;;;;;28.88;44.41;98939.44;4485462;32;33610;-68
2021/06/22 06:34:26;;;;;;;9.77;5.95;;;;;;;28.88;44.38;98935.88;4483530;32;33889;-68
2021/06/22 06:36:54;;;;;;;9.40;6.07;;;;;;;28.88;44.36;98931.19;4484530;32;34570;-69
2021/06/22 06:39:21;;;;;;;9.60;6.03;;;;;;;28.87;44.38;98936.97;4485034;32;33772;-68
2021/06/22 06:41:49;;;;;;;9.43;5.80;;;;;;;28.87;44.37;98943.28;4484982;32;34898;-68
2021/06/22 06:44:17;;;;;;;9.85;6.18;;;;;;;28.88;44.36;98941.34;4484764;32;33977;-68
2021/06/22 06:46:44;;;;;;;9.63;6.30;;;;;;;28.87;44.34;98939.72;4484905;32;33433;-68
2021/06/22 06:49:12;;;;;;;10.98;6.60;;;;;;;28.87;44.33;98945.22;4484882;32;33913;-68
2021/06/22 06:51:39;;;;;;;9.98;6.25;;;;;;;28.86;44.30;98947.09;4484916;32;33635;-69
2021/06/22 06:54:07;;;;;;;8.68;5.80;;;;;;;28.87;44.28;98956.19;4484910;32;34392;-68
2021/06/22 06:56:35;;;;;;;9.23;5.43;;;;;;;28.87;44.29;98956.19;4484586;32;34311;-69
2021/06/22 06:59:03;;;;;;;11.05;6.35;;;;;;;28.87;44.26;98962.50;4484676;32;34294;-68
2021/06/22 07:01:30;;;;;;;9.15;5.55;;;;;;;28.87;44.24;98967.19;4484589;32;34763;-68
2021/06/22 07:03:59;;;;;;;9.32;5.47;;;;;;;28.89;44.20;98964.97;4484562;32;33844;-68
2021/06/22 07:06:26;;;;;;;10.05;6.07;;;;;;;28.89;44.17;98957.53;4484604;32;31958;-68
2021/06/22 07:08:54;;;;;;;9.82;6.18;;;;;;;28.89;44.13;98967.69;4484697;32;34424;-69
2021/06/22 07:11:22;;;;;;;9.48;5.72;;;;;;;28.91;44.08;98973.72;4483592;32;35037;-68
2021/06/22 07:13:50;;;;;;;7.93;5.32;;;;;;;28.92;44.03;98970.72;4484774;32;34565;-69
2021/06/22 07:16:18;;;;;;;9.45;5.70;;;;;;;28.94;44.07;98973.16;4484738;32;34328;-68
2021/06/22 07:18:47;;;;;;;9.25;5.62;;;;;;;28.94;44.05;98975.91;4484236;32;33792;-68
2021/06/22 07:21:16;;;;;;;8.43;5.68;;;;;;;28.92;44.08;98976.22;4484677;32;33593;-68
2021/06/22 07:23:44;;;;;;;9.02;5.50;;;;;;;28.94;44.06;98967.69;4484465;32;33783;-68
2021/06/22 07:26:33;;;;;;;9.25;5.30;;;;;;;28.95;44.03;98975.66;4483506;32;33330;-68
2021/06/22 07:29:01;;;;;;;8.48;5.50;;;;;;;28.95;44.06;98972.91;4484840;32;34511;-69
2021/06/22 07:31:28;;;;;;;6.50;5.20;;;;;;;28.96;44.07;98973.75;4484487;32;33864;-68
2021/06/22 07:33:56;;;;;;;6.70;5.40;;;;;;;28.95;44.09;98975.66;4484626;32;33947;-68
2021/06/22 07:36:24;;;;;;;8.40;5.68;;;;;;;28.95;44.10;98974.84;4484342;32;34464;-68
2021/06/22 07:38:51;;;;;;;9.95;5.60;;;;;;;28.95;44.10;98966.59;4484107;32;33622;-68
2021/06/22 07:41:19;;;;;;;8.90;5.22;;;;;;;28.96;44.08;98973.75;4484476;32;33853;-68
2021/06/22 07:43:47;;;;;;;7.25;5.30;;;;;;;28.97;44.07;98969.91;4483212;32;33778;-69
2021/06/22 07:46:14;;;;;;;8.52;5.32;;;;;;;28.97;44.07;98976.22;4484210;32;34138;-68
2021/06/22 07:48:42;;;;;;;8.40;5.78;;;;;;;28.97;44.09;98969.91;4483252;32;34605;-68
2021/06/22 07:51:10;;;;;;;11.00;5.30;;;;;;;28.97;44.08;98967.16;4484498;32;33832;-68
2021/06/22 07:53:37;;;;;;;7.05;5.57;;;;;;;28.97;44.07;98965.22;4483061;32;33812;-68
2021/06/22 07:56:05;;;;;;;8.82;5.40;;;;;;;28.97;44.05;98965.22;4484116;32;33307;-68
2021/06/22 07:58:33;;;;;;;8.20;5.20;;;;;;;28.99;44.06;98964.94;4484568;32;34532;-68
2021/06/22 08:01:00;;;;;;;6.43;5.22;;;;;;;28.97;44.06;98967.97;4484299;32;33887;-68
2021/06/22 08:03:28;;;;;;;7.30;5.28;;;;;;;29.00;44.07;98971.22;4483649;32;34433;-68
2021/06/22 08:05:56;;;;;;;10.45;5.72;;;;;;;28.98;44.06;98966.84;4484108;32;33946;-68
2021/06/22 08:08:24;;;;;;;7.80;5.60;;;;;;;29.00;44.06;98974.81;4483722;32;33915;-68
2021/06/22 08:10:53;;;;;;;9.18;5.50;;;;;;;28.99;44.05;98970.41;4484561;32;33843;-68
2021/06/22 08:13:21;;;;;;;8.60;5.77;;;;;;;28.97;44.05;98970.72;4484317;32;33513;-68
2021/06/22 08:15:48;;;;;;;7.22;5.43;;;;;;;29.00;43.98;98965.75;4484185;32;33152;-68
2021/06/22 08:18:16;;;;;;;8.10;5.68;;;;;;;29.00;43.99;98974.81;4484247;32;34826;-67
2021/06/22 08:20:44;;;;;;;8.15;5.07;;;;;;;29.00;44.01;98980.28;4470141;32;34927;-68
2021/06/22 08:23:12;;;;;;;7.90;4.85;;;;;;;29.01;44.01;98975.66;4483981;32;34000;-68
2021/06/22 08:25:40;;;;;;;7.97;5.30;;;;;;;29.00;44.00;98976.72;4483723;32;34035;-67
2021/06/22 08:28:07;;;;;;;8.82;5.80;;;;;;;29.00;43.97;98985.78;4484239;32;33812;-68
2021/06/22 08:30:35;;;;;;;8.30;5.25;;;;;;;29.01;43.96;98978.41;4484149;32;33608;-68
2021/06/22 08:33:04;;;;;;;6.87;5.22;;;;;;;29.00;43.96;98982.22;4484166;32;34739;-68
2021/06/22 08:35:32;;;;;;;7.93;5.00;;;;;;;28.99;43.92;98975.91;4483125;32;33292;-67
2021/06/22 08:37:59;;;;;;;8.25;4.75;;;;;;;29.01;43.92;98987.44;4482741;32;34846;-68
2021/06/22 08:40:27;;;;;;;9.85;5.95;;;;;;;29.00;43.94;98974.81;4484193;32;33931;-68
2021/06/22 08:42:55;;;;;;;8.82;5.68;;;;;;;29.01;43.92;98975.66;4484076;32;33804;-68
2021/06/22 08:45:22;;;;;;;8.32;5.15;;;;;;;29.00;43.94;98983.03;4483638;32;33489;-67
2021/06/22 08:47:51;;;;;;;6.87;5.50;;;;;;;29.01;43.94;98975.66;4483140;32;33773;-69
2021/06/22 08:50:18;;;;;;;8.05;5.00;;;;;;;29.02;43.95;98980.03;4483552;32;33494;-68
2021/06/22 08:52:46;;;;;;;9.43;5.28;;;;;;;29.00;43.93;98958.31;4482373;31;33451;-68
2021/06/22 08:55:49;;;;;;;6.25;5.25;;;;;;;29.01;43.92;98967.41;4483627;32;34090;-68
2021/06/22 08:58:10;;;;;;;7.65;5.40;;;;;;;29.01;43.94;98964.66;4479619;32;33721;-68
2021/06/22 09:00:40;;;;;;;6.95;5.03;;;;;;;29.01;43.89;98962.72;4483265;32;33922;-67
2021/06/22 09:03:13;;;;;;;6.60;5.35;;;;;;;29.01;43.87;98973.72;4483002;32;33815;-68
2021/06/22 09:05:42;;;;;;;8.07;5.05;;;;;;;29.01;43.91;98978.41;4483280;32;34031;-67
2021/06/22 09:08:29;;;;;;;7.62;5.47;;;;;;;29.01;43.92;98979.22;4483214;32;34427;-66
2021/06/22 09:11:07;;;;;;;9.23;5.50;;;;;;;29.02;43.88;98975.34;4467487;32;33796;-66
2021/06/22 09:13:34;;;;;;;8.23;5.40;;;;;;;29.01;43.85;98976.47;4467228;32;34999;-68
2021/06/22 09:16:03;;;;;;;7.78;5.00;;;;;;;29.01;43.87;98981.13;4467458;32;33564;-67
2021/06/22 09:18:35;;;;;;;6.87;4.82;;;;;;;29.01;43.87;98978.41;4467551;32;34799;-68
2021/06/22 09:21:05;;;;;;;6.60;4.80;;;;;;;29.01;43.88;98973.72;4465946;32;33968;-67
2021/06/22 09:23:34;;;;;;;7.45;5.18;;;;;;;29.00;43.86;98985.78;4469814;32;34596;-68
2021/06/22 09:26:11;;;;;;;6.60;4.65;;;;;;;29.01;43.83;98984.72;4482876;31;34056;-68
2021/06/22 09:28:39;;;;;;;6.82;5.20;;;;;;;29.02;43.81;98980.84;4483057;32;33725;-68
2021/06/22 09:31:09;;;;;;;7.47;4.97;;;;;;;29.01;43.82;99008.59;4482881;32;33821;-68
2021/06/22 09:33:40;;;;;;;7.85;5.37;;;;;;;29.00;43.83;99013.25;4482791;32;34508;-68
2021/06/22 09:36:16;;;;;;;7.65;5.10;;;;;;;29.01;43.80;99008.59;4482849;32;33987;-68
2021/06/22 09:38:47;;;;;;;7.75;4.70;;;;;;;29.01;43.80;99014.91;4482837;32;33745;-67
2021/06/22 09:41:18;;;;;;;6.82;4.57;;;;;;;29.01;43.80;99011.34;4482783;32;33800;-67
2021/06/22 09:43:51;;;;;;;7.57;5.30;;;;;;;29.01;43.80;99005.84;4480291;32;33703;-67
2021/06/22 09:46:39;;;;;;;7.22;4.80;;;;;;;29.03;43.81;99014.62;4480280;32;34213;-67
2021/06/22 09:49:10;;;;;;;7.87;4.87;;;;;;;29.04;43.76;99014.34;4482437;32;33722;-68
2021/06/22 09:52:19;;;;;;;7.35;4.62;;;;;;;29.00;43.83;99010.50;4481743;32;35357;-67
2021/06/22 09:54:48;;;;;;;8.40;5.18;;;;;;;29.00;43.84;99010.50;4478715;32;33612;-69
2021/06/22 09:57:17;;;;;;;6.85;5.40;;;;;;;29.02;43.81;99013.81;4480571;32;34195;-68
2021/06/22 10:00:05;;;;;;;7.12;4.20;;;;;;;29.01;43.84;99014.09;4481956;32;33790;-67
2021/06/22 10:02:57;;;;;;;7.72;4.85;;;;;;;29.03;43.80;99009.94;4476156;32;34561;-68
2021/06/22 10:05:25;;;;;;;6.75;5.10;;;;;;;29.03;43.77;99020.94;4474341;31;34353;-67
2021/06/22 10:08:00;;;;;;;9.13;4.60;;;;;;;29.02;43.82;99018.47;4481812;31;33420;-67
2021/06/22 10:10:38;;;;;;;6.32;4.82;;;;;;;29.02;43.84;99010.25;4481764;32;33819;-68
2021/06/22 10:13:06;;;;;;;6.07;4.65;;;;;;;29.02;43.82;99002.00;4475568;32;33782;-67
2021/06/22 10:15:34;;;;;;;6.93;4.50;;;;;;;29.00;43.83;99007.75;4475330;32;33381;-67
2021/06/22 10:18:02;;;;;;;8.40;4.65;;;;;;;29.01;43.83;99011.34;4481750;32;33636;-68
2021/06/22 10:20:29;;;;;;;7.85;4.78;;;;;;;29.01;43.83;99014.09;4481653;32;33964;-67
2021/06/22 10:22:57;;;;;;;6.72;4.55;;;;;;;29.00;43.82;99016.00;4467540;32;33775;-68
2021/06/22 10:25:26;;;;;;;5.85;4.47;;;;;;;29.01;43.82;99014.91;4482413;32;33674;-68
2021/06/22 10:27:55;;;;;;;5.78;4.47;;;;;;;29.01;43.80;99009.44;4482941;32;33313;-69
2021/06/22 10:30:23;;;;;;;6.00;4.40;;;;;;;29.02;43.78;99015.72;4479736;32;33510;-72
2021/06/22 10:32:51;;;;;;;7.15;4.30;;;;;;;29.04;43.78;99019.00;4484001;32;33853;-69
2021/06/22 10:35:18;;;;;;;13.50;4.57;;;;;;;29.02;43.84;99016.56;4484996;32;34113;-67
2021/06/22 10:37:54;;;;;;;12.37;4.30;;;;;;;29.03;44.18;99028.34;4470734;32;34107;-66
2021/06/22 10:40:24;;;;;;;8.77;5.32;;;;;;;29.01;44.06;99014.91;4471434;32;33625;-68
2021/06/22 10:42:59;;;;;;;14.00;5.10;;;;;;;29.04;44.02;99022.56;4484927;32;34648;-68
2021/06/22 10:45:57;;;;;;;11.40;4.97;;;;;;;29.04;44.23;99019.81;4485145;32;33747;-68
2021/06/22 10:48:25;;;;;;;15.50;5.07;;;;;;;29.05;44.59;99015.16;4484444;32;33020;-68
2021/06/22 10:50:52;;;;;;;14.40;4.87;;;;;;;29.05;44.47;99013.25;4484639;32;33948;-67
2021/06/22 10:53:41;;;;;;;13.25;5.62;;;;;;;29.05;44.51;99017.91;4470499;32;34697;-68
2021/06/22 10:56:16;;;;;;;12.68;5.03;;;;;;;29.08;44.69;99017.34;4484853;32;34240;-67
2021/06/22 10:59:11;;;;;;;10.10;5.30;;;;;;;29.06;44.61;99014.88;4484779;32;33604;-68
2021/06/22 11:01:58;;;;;;;15.32;5.53;;;;;;;29.08;44.48;99007.16;4484669;32;34771;-67
2021/06/22 11:04:26;;;;;;;10.23;5.10;;;;;;;29.08;44.66;99023.66;4483750;32;33894;-68
2021/06/22 11:07:06;;;;;;;7.90;5.00;;;;;;;29.05;44.68;99015.16;4470494;32;33656;-64
2021/06/22 11:09:34;;;;;;;13.80;5.95;;;;;;;29.08;44.66;99017.34;4484903;32;33355;-65
2021/06/22 11:12:21;;;;;;;12.68;4.95;;;;;;;29.08;44.98;99026.41;4484931;32;33778;-73
2021/06/22 11:15:03;;;;;;;15.13;5.72;;;;;;;29.11;45.01;99025.03;4484215;32;33609;-68
2021/06/22 11:17:53;;;;;;;13.50;5.28;;;;;;;29.10;45.07;99024.22;4484405;32;34332;-65
2021/06/22 11:20:21;;;;;;;16.35;5.37;;;;;;;29.15;45.05;99017.87;4477232;31;34218;-68
2021/06/22 11:23:08;;;;;;;13.20;5.80;;;;;;;29.14;45.20;99017.00;4484557;32;33713;-64
2021/06/22 11:25:50;;;;;;;11.38;5.25;;;;;;;29.17;45.20;99018.37;4484468;32;34707;-65
2021/06/22 11:28:20;;;;;;;14.57;5.40;;;;;;;29.19;45.29;99029.91;4484415;32;33860;-67
2021/06/22 11:31:00;;;;;;;25.12;5.57;;;;;;;29.17;45.33;99016.47;4484606;32;33849;-69
2021/06/22 11:33:28;;;;;;;13.98;5.25;;;;;;;29.19;45.43;99019.75;4484608;32;33834;-68
2021/06/22 11:36:18;;;;;;;14.27;5.82;;;;;;;29.18;45.45;99011.78;4482515;32;33847;-67
2021/06/22 11:39:15;;;;;;;16.75;5.70;;;;;;;29.23;45.41;99009.00;4482134;32;33874;-69
2021/06/22 11:42:16;;;;;;;12.77;5.72;;;;;;;29.23;45.47;99006.25;4482965;32;33222;-68
2021/06/22 11:45:20;;;;;;;14.73;5.65;;;;;;;29.25;45.34;99006.81;4461073;32;32935;-68